Terminal Aerodrome Forecast
Issued by NWS Charleston, WV

Current Version | Previous Version | Text Only | Print | Product List | Glossary Off
Versions: 1 2 3 4 5 6 7 8 9 10 11 12 13 14 15 16 17 18 19 20 21

000
FTUS41 KRLX 102300
TAFCRW
TAF
KCRW 102339Z 1100/1124 02004KT P6SM SCT050
      TEMPO 1100/1101 5SM -TSRA BKN040CB
     FM110400 00000KT 4SM BR SCT001
     FM110600 00000KT 2SM BR SCT001
      TEMPO 1106/1108 3/4SM BR BKN001
     FM110800 00000KT 1/2SM FG BKN001
     FM111200 00000KT 2SM BR FEW001
     FM111230 00000KT P6SM SKC
     FM111500 VRB03KT P6SM SCT050=

USA.gov is the U.S. government's official web portal to all federal, state and local government web resources and services.